Time;durP1;ratioP1;P1;durP2;ratioP2;P2;SDS_P1;SDS_P2;PMS_P1;PMS_P2;Temp;Humidity;BMP_temperature;BMP_pressure;BME280_temperature;BME280_humidity;BME280_pressure;Samples;Min_cycle;Max_cycle;Signal;HPM_P1;HPM_P2
2022/12/14 00:01:57;;;;;;;13.93;8.27;;;-1.10;99.90;;;;;;10436525;28;20212;-77
2022/12/14 00:06:57;;;;;;;14.67;8.67;;;-1.10;99.90;;;;;;10432043;28;20221;-75
2022/12/14 00:11:58;;;;;;;12.60;7.60;;;-1.10;99.90;;;;;;10439129;28;20306;-76
2022/12/14 00:16:58;;;;;;;10.70;7.10;;;-1.10;99.90;;;;;;10429796;28;20204;-77
2022/12/14 00:21:59;;;;;;;12.73;7.53;;;-1.10;99.90;;;;;;10432759;28;20556;-76
2022/12/14 00:26:59;;;;;;;12.73;7.40;;;-1.00;99.90;;;;;;10434058;28;20250;-77
2022/12/14 00:32:00;;;;;;;11.73;7.47;;;-1.00;99.90;;;;;;10439572;28;20272;-77
2022/12/14 00:37:01;;;;;;;13.03;7.50;;;-1.00;99.90;;;;;;10431612;28;20212;-77
2022/12/14 00:42:01;;;;;;;13.73;7.77;;;-0.90;99.90;;;;;;10435674;28;20219;-78
2022/12/14 00:47:02;;;;;;;12.47;7.50;;;-1.00;99.90;;;;;;10432921;28;20833;-78
2022/12/14 00:52:02;;;;;;;14.53;7.63;;;-1.00;99.90;;;;;;10435204;28;20311;-76
2022/12/14 00:57:03;;;;;;;9.80;6.10;;;-1.10;99.90;;;;;;10432490;28;20238;-77
2022/12/14 01:02:04;;;;;;;12.90;7.57;;;-1.10;99.90;;;;;;10434702;28;20252;-77
2022/12/14 01:07:04;;;;;;;12.10;7.93;;;-1.10;99.90;;;;;;10435932;28;20263;-77
2022/12/14 01:12:05;;;;;;;12.53;8.10;;;-1.00;99.90;;;;;;10427883;28;20208;-77
2022/12/14 01:17:05;;;;;;;14.50;8.50;;;-0.90;99.90;;;;;;10423945;28;20216;-77
2022/12/14 01:22:06;;;;;;;11.90;7.40;;;-1.00;99.90;;;;;;10433306;28;20712;-77
2022/12/14 01:27:06;;;;;;;12.07;8.20;;;-1.00;99.90;;;;;;10431262;28;20339;-78
2022/12/14 01:32:10;;;;;;;12.83;8.43;;;-1.00;99.90;;;;;;10433613;28;20653;-76
2022/12/14 01:37:10;;;;;;;12.27;7.87;;;-1.00;99.90;;;;;;10438271;28;20273;-77
2022/12/14 01:42:12;;;;;;;10.63;7.77;;;-0.90;99.90;;;;;;10434996;28;20227;-77
2022/12/14 01:47:28;;;;;;;11.67;8.13;;;-0.90;99.90;;;;;;10439005;28;20212;-77
2022/12/14 01:52:42;;;;;;;13.23;7.70;;;-0.90;99.90;;;;;;10429395;28;20226;-78
2022/12/14 01:57:52;;;;;;;12.60;7.73;;;-0.90;99.90;;;;;;10425860;28;20311;-77
2022/12/14 02:03:01;;;;;;;10.67;7.67;;;-0.90;99.90;;;;;;10439482;28;20250;-77
2022/12/14 02:08:03;;;;;;;11.90;7.70;;;-0.90;99.90;;;;;;10428426;28;20597;-78
2022/12/14 02:13:26;;;;;;;11.67;7.63;;;-0.90;99.90;;;;;;10425104;28;20228;-78
2022/12/14 02:18:29;;;;;;;11.27;7.43;;;-1.00;99.90;;;;;;10427330;28;20211;-78
2022/12/14 02:23:50;;;;;;;15.17;8.73;;;-1.00;99.90;;;;;;10434064;28;20250;-76
2022/12/14 02:29:19;;;;;;;12.63;7.53;;;-1.00;99.90;;;;;;10434435;28;20249;-78
2022/12/14 02:34:55;;;;;;;11.87;7.70;;;-1.00;99.90;;;;;;10428044;28;20231;-76
2022/12/14 02:40:10;;;;;;;13.60;7.80;;;-1.00;99.90;;;;;;10428313;28;20213;-76
2022/12/14 02:45:31;;;;;;;11.27;6.97;;;-1.00;99.90;;;;;;10429238;28;20220;-77
2022/12/14 02:51:02;;;;;;;14.90;7.70;;;-1.00;99.90;;;;;;10431826;28;20226;-77
2022/12/14 02:56:07;;;;;;;10.30;7.33;;;-1.00;99.90;;;;;;10427373;28;20228;-78
2022/12/14 03:01:12;;;;;;;11.07;7.80;;;-1.00;99.90;;;;;;10433226;28;20255;-77
2022/12/14 03:06:24;;;;;;;11.93;7.80;;;-1.00;99.90;;;;;;10429223;28;20226;-78
2022/12/14 03:11:50;;;;;;;12.00;7.57;;;-1.00;99.90;;;;;;10425109;28;20215;-77
2022/12/14 03:16:52;;;;;;;13.47;8.00;;;-1.00;99.90;;;;;;10425675;28;20243;-77
2022/12/14 03:21:58;;;;;;;13.23;7.23;;;-1.00;99.90;;;;;;10426313;28;20273;-77
2022/12/14 03:27:08;;;;;;;14.87;8.27;;;-1.00;99.90;;;;;;10431568;28;20407;-76
2022/12/14 03:32:17;;;;;;;11.03;7.30;;;-0.90;99.90;;;;;;10433035;28;20223;-77
2022/12/14 03:37:29;;;;;;;14.30;8.60;;;-0.90;99.90;;;;;;10420351;28;20729;-77
2022/12/14 03:42:30;;;;;;;11.90;7.57;;;-0.90;99.90;;;;;;10434382;28;20312;-77
2022/12/14 03:47:49;;;;;;;12.30;8.30;;;-1.00;99.90;;;;;;10424783;28;20968;-77
2022/12/14 03:53:09;;;;;;;11.60;7.43;;;-1.00;99.90;;;;;;10425906;28;20750;-77
2022/12/14 03:58:34;;;;;;;12.30;7.50;;;-1.10;99.90;;;;;;10432972;28;20314;-78
2022/12/14 04:04:01;;;;;;;11.83;8.20;;;-1.20;99.90;;;;;;10429843;28;20307;-75
2022/12/14 04:09:19;;;;;;;13.70;8.27;;;-1.20;99.90;;;;;;10442183;28;20216;-77
2022/12/14 04:19:59;;;;;;;14.93;8.03;;;-1.10;99.90;;;;;;10432370;28;20212;-77
2022/12/14 04:30:26;;;;;;;14.27;7.77;;;-1.10;99.90;;;;;;10431136;28;20255;-78
2022/12/14 04:35:28;;;;;;;14.40;8.33;;;-1.00;99.90;;;;;;10433101;28;20236;-77
2022/12/14 04:40:36;;;;;;;15.00;8.30;;;-1.00;99.90;;;;;;10437141;28;20220;-77
2022/12/14 04:45:53;;;;;;;14.50;8.70;;;-1.00;99.90;;;;;;10439161;28;20238;-77
2022/12/14 04:51:37;;;;;;;17.47;8.93;;;-1.00;99.90;;;;;;10430755;28;20215;-77
2022/12/14 04:56:58;;;;;;;12.90;8.33;;;-1.00;99.90;;;;;;10436699;28;20223;-77
2022/12/14 05:02:08;;;;;;;11.97;7.90;;;-1.00;99.90;;;;;;10432042;28;20809;-77
2022/12/14 05:07:22;;;;;;;13.03;8.53;;;-0.90;99.90;;;;;;10433496;28;20251;-76
2022/12/14 05:12:38;;;;;;;13.20;8.37;;;-0.90;99.90;;;;;;10429565;28;20311;-77
2022/12/14 05:17:40;;;;;;;16.23;8.67;;;-0.90;99.90;;;;;;10436675;28;20722;-77
2022/12/14 05:22:41;;;;;;;15.63;9.10;;;-0.90;99.90;;;;;;10437303;28;20220;-77
2022/12/14 05:27:47;;;;;;;13.10;8.37;;;-1.00;99.90;;;;;;10428425;28;20283;-78
2022/12/14 05:32:48;;;;;;;13.63;8.80;;;-0.90;99.90;;;;;;10419743;28;20227;-78
2022/12/14 05:37:49;;;;;;;14.37;8.43;;;-0.90;99.90;;;;;;10435033;28;20218;-76
2022/12/14 05:42:49;;;;;;;13.87;8.73;;;-0.80;99.90;;;;;;10434864;28;20242;-77
2022/12/14 05:47:50;;;;;;;12.00;9.13;;;-0.70;99.90;;;;;;10427272;28;20207;-77
2022/12/14 05:52:51;;;;;;;13.80;7.97;;;-0.70;99.90;;;;;;10433103;28;20232;-76
2022/12/14 05:57:52;;;;;;;16.10;9.30;;;-0.60;99.90;;;;;;10434436;28;20224;-78
2022/12/14 06:02:54;;;;;;;14.63;9.23;;;-0.70;99.90;;;;;;10426856;28;20224;-79
2022/12/14 06:07:54;;;;;;;13.57;9.30;;;-0.70;99.90;;;;;;10425281;28;20244;-77
2022/12/14 06:12:57;;;;;;;14.60;9.17;;;-0.80;99.90;;;;;;10436337;28;20215;-78
2022/12/14 06:17:57;;;;;;;13.83;9.73;;;-0.80;99.90;;;;;;10432436;28;20212;-77
2022/12/14 06:22:58;;;;;;;18.03;9.83;;;-0.80;99.90;;;;;;10425675;28;20307;-78
2022/12/14 06:27:58;;;;;;;14.87;9.53;;;-0.80;99.90;;;;;;10434447;28;20366;-77
2022/12/14 06:32:59;;;;;;;14.13;9.70;;;-0.80;99.90;;;;;;10426962;28;20307;-76
2022/12/14 06:37:59;;;;;;;15.70;9.90;;;-0.90;99.90;;;;;;10426880;28;20278;-77
2022/12/14 06:43:00;;;;;;;18.17;10.13;;;-0.80;99.90;;;;;;10432023;28;20255;-77
2022/12/14 06:48:00;;;;;;;16.07;10.07;;;-0.80;99.90;;;;;;10428340;28;20691;-78
2022/12/14 06:53:04;;;;;;;15.73;10.00;;;-0.80;99.90;;;;;;10431906;28;20319;-77
2022/12/14 06:58:04;;;;;;;14.77;9.80;;;-0.80;99.90;;;;;;10428712;28;20254;-79
2022/12/14 07:03:05;;;;;;;18.47;10.37;;;-0.90;99.90;;;;;;10430074;28;20315;-78
2022/12/14 07:08:05;;;;;;;14.87;10.40;;;-0.90;99.90;;;;;;10425260;28;20267;-76
2022/12/14 07:13:06;;;;;;;16.27;10.30;;;-0.90;99.90;;;;;;10427803;28;20314;-79
2022/12/14 07:18:09;;;;;;;17.57;10.40;;;-0.90;99.90;;;;;;10434086;28;20231;-77
2022/12/14 07:23:10;;;;;;;16.77;10.17;;;-0.90;99.90;;;;;;10432304;28;20220;-78
2022/12/14 07:28:10;;;;;;;17.23;9.90;;;-0.70;99.90;;;;;;10432875;28;20232;-78
2022/12/14 07:33:11;;;;;;;14.77;10.20;;;-0.80;99.90;;;;;;10428835;28;20271;-77
2022/12/14 07:38:12;;;;;;;16.60;10.70;;;-0.80;99.90;;;;;;10432055;28;20223;-76
2022/12/14 07:43:13;;;;;;;14.83;9.80;;;-0.80;99.90;;;;;;10436698;28;20295;-77
2022/12/14 07:48:13;;;;;;;20.60;10.57;;;-0.80;99.90;;;;;;10432925;28;20307;-77
2022/12/14 07:53:14;;;;;;;16.13;10.57;;;-0.70;99.90;;;;;;10435738;28;20221;-78
2022/12/14 07:58:14;;;;;;;19.27;10.83;;;-0.70;99.90;;;;;;10442673;28;20566;-78
2022/12/14 08:03:15;;;;;;;18.60;11.13;;;-0.90;99.90;;;;;;10435213;28;20786;-76
2022/12/14 08:08:15;;;;;;;16.70;11.37;;;-0.80;99.90;;;;;;10443108;28;20223;-78
2022/12/14 08:13:16;;;;;;;16.80;10.80;;;-0.70;99.90;;;;;;10445508;28;20733;-77
2022/12/14 08:18:16;;;;;;;18.47;10.90;;;-0.50;99.90;;;;;;10435853;28;20216;-77
2022/12/14 08:23:20;;;;;;;19.73;11.50;;;-0.60;99.90;;;;;;10434837;28;20228;-77
2022/12/14 08:28:23;;;;;;;16.07;10.83;;;-0.50;99.90;;;;;;10436231;28;20633;-76
2022/12/14 08:33:24;;;;;;;18.67;11.07;;;-0.50;99.90;;;;;;10432581;28;20271;-77
2022/12/14 08:38:24;;;;;;;18.57;11.83;;;-0.60;99.90;;;;;;10436013;28;20723;-76
2022/12/14 08:43:25;;;;;;;18.53;11.20;;;-0.50;99.90;;;;;;10432936;28;20216;-76
2022/12/14 08:48:26;;;;;;;19.23;11.57;;;-0.50;99.90;;;;;;10429167;28;20247;-78
2022/12/14 08:53:26;;;;;;;19.03;12.03;;;-0.60;99.90;;;;;;10434616;28;20220;-76
2022/12/14 08:58:27;;;;;;;19.17;12.07;;;-0.50;99.90;;;;;;10431657;28;20290;-76
2022/12/14 09:03:27;;;;;;;17.07;11.07;;;-0.40;99.90;;;;;;10429036;28;20213;-76
2022/12/14 09:08:28;;;;;;;18.07;13.03;;;-0.40;99.90;;;;;;10438225;28;20223;-77
2022/12/14 09:13:28;;;;;;;17.47;12.10;;;-0.40;99.90;;;;;;10436819;28;20223;-77
2022/12/14 09:18:35;;;;;;;18.27;11.90;;;-0.50;99.90;;;;;;10430794;28;20220;-77
2022/12/14 09:23:36;;;;;;;19.53;12.63;;;-0.50;99.90;;;;;;10427079;28;20212;-77
2022/12/14 09:28:39;;;;;;;23.07;12.80;;;-0.50;99.90;;;;;;10428326;28;20595;-77
2022/12/14 09:33:39;;;;;;;20.43;11.97;;;-0.50;99.90;;;;;;10427978;28;20225;-75
2022/12/14 09:38:42;;;;;;;18.20;12.10;;;-0.50;99.90;;;;;;10435762;28;20254;-76
2022/12/14 09:43:52;;;;;;;17.57;11.00;;;-0.40;99.90;;;;;;10427907;28;20217;-77
2022/12/14 09:48:55;;;;;;;17.77;11.20;;;-0.30;99.90;;;;;;10432909;28;20345;-75
2022/12/14 09:54:11;;;;;;;16.20;11.00;;;-0.20;99.90;;;;;;10428810;28;20229;-76
2022/12/14 09:59:16;;;;;;;17.70;11.37;;;-0.20;99.90;;;;;;10433792;28;20270;-77
2022/12/14 10:04:27;;;;;;;15.63;10.77;;;-0.20;99.90;;;;;;10438405;28;20274;-76
2022/12/14 10:09:34;;;;;;;15.17;10.87;;;0.00;99.90;;;;;;10431747;28;20219;-77
2022/12/14 10:15:12;;;;;;;17.10;10.50;;;-0.10;99.90;;;;;;10426109;28;20250;-77
2022/12/14 10:20:31;;;;;;;18.37;10.83;;;-0.20;99.90;;;;;;10388704;28;20228;-77
2022/12/14 10:25:35;;;;;;;16.07;10.67;;;-0.20;99.90;;;;;;10428089;28;20729;-77
2022/12/14 10:30:36;;;;;;;16.03;10.57;;;-0.10;99.90;;;;;;10431607;28;20215;-77
2022/12/14 10:35:52;;;;;;;16.07;10.30;;;0.00;99.90;;;;;;10424982;28;20232;-76
2022/12/14 10:41:01;;;;;;;18.50;11.27;;;0.00;99.90;;;;;;10424267;28;20231;-76
2022/12/14 10:46:17;;;;;;;15.73;10.40;;;0.00;99.90;;;;;;10426912;28;20359;-76
2022/12/14 10:51:25;;;;;;;15.53;9.60;;;0.00;99.90;;;;;;10427736;28;20220;-76
2022/12/14 10:56:34;;;;;;;17.03;9.93;;;0.00;99.90;;;;;;10429629;28;20224;-76
2022/12/14 11:01:35;;;;;;;13.70;9.30;;;-0.10;99.90;;;;;;10425973;28;20228;-77
2022/12/14 11:06:35;;;;;;;15.23;9.93;;;-0.10;99.90;;;;;;10432062;28;20215;-78
2022/12/14 11:11:36;;;;;;;16.27;9.90;;;0.00;99.90;;;;;;10436282;28;20267;-78
2022/12/14 11:16:39;;;;;;;16.77;10.40;;;0.00;99.90;;;;;;10448412;28;20810;-77
2022/12/14 11:21:40;;;;;;;16.73;11.60;;;0.10;99.90;;;;;;10438926;28;20220;-77
2022/12/14 11:26:42;;;;;;;17.07;10.10;;;0.20;99.90;;;;;;10445821;28;20815;-74
2022/12/14 11:31:45;;;;;;;16.13;10.20;;;0.30;99.90;;;;;;10447001;28;20586;-76
2022/12/14 11:36:47;;;;;;;16.23;10.57;;;0.30;99.90;;;;;;10438467;28;20231;-76
2022/12/14 11:42:03;;;;;;;15.37;10.33;;;0.30;99.90;;;;;;10452633;28;20211;-77
2022/12/14 11:47:14;;;;;;;20.17;10.93;;;0.50;99.90;;;;;;10438462;28;20271;-76
2022/12/14 11:52:21;;;;;;;20.27;10.47;;;0.60;99.90;;;;;;10445994;28;20251;-77
2022/12/14 11:57:29;;;;;;;21.20;10.00;;;0.60;99.90;;;;;;10446512;28;20238;-77
2022/12/14 12:02:39;;;;;;;17.53;10.67;;;0.60;99.90;;;;;;10444106;28;20220;-77
2022/12/14 12:07:49;;;;;;;16.37;11.03;;;0.60;99.90;;;;;;10446814;28;20303;-76
2022/12/14 12:12:51;;;;;;;18.93;11.47;;;0.50;99.90;;;;;;10437613;28;20275;-78
2022/12/14 12:17:59;;;;;;;18.40;11.33;;;0.50;99.90;;;;;;10445212;28;20212;-76
2022/12/14 12:23:15;;;;;;;16.13;11.00;;;0.50;99.90;;;;;;10441737;28;20679;-77
2022/12/14 12:28:33;;;;;;;18.00;11.10;;;0.50;99.90;;;;;;10430120;28;20279;-77
2022/12/14 12:33:48;;;;;;;16.27;10.67;;;0.50;99.90;;;;;;10437143;28;20349;-75
2022/12/14 12:39:15;;;;;;;17.13;10.97;;;0.60;99.90;;;;;;10431173;28;20216;-77
2022/12/14 12:44:57;;;;;;;14.67;10.83;;;0.60;99.90;;;;;;10433742;28;20565;-78
2022/12/14 12:50:08;;;;;;;18.00;10.63;;;0.60;99.90;;;;;;10431472;28;20227;-78
2022/12/14 12:55:18;;;;;;;15.47;9.67;;;0.60;99.90;;;;;;10437596;28;20220;-77
2022/12/14 13:00:24;;;;;;;16.50;10.50;;;0.80;99.90;;;;;;10436209;28;20588;-77
2022/12/14 13:05:28;;;;;;;16.57;11.03;;;0.80;99.90;;;;;;10432471;28;20632;-77
2022/12/14 13:10:38;;;;;;;15.80;10.87;;;0.80;99.90;;;;;;10428914;28;20209;-78
2022/12/14 13:15:52;;;;;;;14.57;10.13;;;0.80;99.90;;;;;;10445443;28;20221;-76
2022/12/14 13:20:54;;;;;;;13.50;10.03;;;0.80;99.90;;;;;;10430439;28;20224;-77
2022/12/14 13:26:19;;;;;;;14.80;10.07;;;0.70;99.90;;;;;;10431435;28;20258;-79
2022/12/14 13:31:43;;;;;;;17.13;10.70;;;0.80;99.90;;;;;;10432581;28;20717;-76
2022/12/14 13:37:05;;;;;;;19.33;10.17;;;0.90;99.90;;;;;;10436010;28;20612;-78
2022/12/14 13:42:29;;;;;;;16.27;10.77;;;0.90;99.90;;;;;;10431035;28;20755;-76
2022/12/14 13:47:43;;;;;;;17.00;11.03;;;0.90;99.90;;;;;;10434893;28;20235;-76
2022/12/14 13:52:47;;;;;;;16.77;10.60;;;0.80;99.90;;;;;;10435854;28;20221;-77
2022/12/14 13:57:48;;;;;;;15.30;10.47;;;0.60;99.90;;;;;;10427846;28;20213;-78
2022/12/14 14:02:52;;;;;;;15.03;10.57;;;0.50;99.90;;;;;;10442338;28;20252;-77
2022/12/14 14:08:32;;;;;;;16.63;11.17;;;0.50;99.90;;;;;;10427243;28;20232;-76
2022/12/14 14:13:32;;;;;;;16.37;10.83;;;0.50;99.90;;;;;;10405539;28;20440;-76
2022/12/14 14:18:45;;;;;;;14.43;10.10;;;0.50;99.90;;;;;;10458358;28;20224;-77
2022/12/14 14:23:55;;;;;;;17.97;10.53;;;0.50;99.90;;;;;;10426360;28;20990;-76
2022/12/14 14:29:23;;;;;;;21.63;11.33;;;0.50;99.90;;;;;;10425882;28;20292;-77
2022/12/14 14:34:33;;;;;;;15.73;11.17;;;0.50;99.90;;;;;;10426604;28;20236;-77
2022/12/14 14:39:36;;;;;;;17.97;10.63;;;0.50;99.90;;;;;;10432621;28;20232;-75
2022/12/14 14:44:50;;;;;;;17.53;10.77;;;0.50;99.90;;;;;;10425537;28;20227;-76
2022/12/14 14:49:56;;;;;;;17.30;10.73;;;0.40;99.90;;;;;;10432187;28;20273;-77
2022/12/14 14:54:57;;;;;;;14.03;10.30;;;0.40;99.90;;;;;;10432101;28;20622;-76
2022/12/14 15:00:01;;;;;;;14.80;9.33;;;0.40;99.90;;;;;;10426421;28;20229;-78
2022/12/14 15:05:03;;;;;;;16.00;9.37;;;0.30;99.90;;;;;;10432456;28;20216;-77
2022/12/14 15:10:29;;;;;;;14.23;10.50;;;0.20;99.90;;;;;;10427407;28;20307;-77
2022/12/14 15:15:44;;;;;;;17.70;9.23;;;0.30;99.90;;;;;;10438648;28;20667;-78
2022/12/14 15:21:05;;;;;;;14.43;9.87;;;0.30;99.90;;;;;;10425134;28;20703;-77
2022/12/14 15:26:18;;;;;;;15.80;10.47;;;0.20;99.90;;;;;;10430000;28;20231;-73
2022/12/14 15:31:29;;;;;;;17.30;11.37;;;0.20;99.90;;;;;;10432738;28;20217;-76
2022/12/14 15:36:34;;;;;;;21.93;11.03;;;0.20;99.90;;;;;;10431219;28;20250;-77
2022/12/14 15:41:34;;;;;;;16.43;10.70;;;0.10;99.90;;;;;;10426690;28;20294;-76
2022/12/14 15:46:39;;;;;;;15.47;10.17;;;0.00;99.90;;;;;;10447447;28;20244;-74
2022/12/14 15:51:42;;;;;;;18.20;11.53;;;0.00;99.90;;;;;;10430441;28;20223;-76
2022/12/14 15:56:46;;;;;;;16.63;10.70;;;-0.10;99.90;;;;;;10430899;28;20228;-77
2022/12/14 16:01:51;;;;;;;17.90;11.33;;;0.00;99.90;;;;;;10440519;28;20281;-78
2022/12/14 16:07:05;;;;;;;16.30;10.50;;;0.10;99.90;;;;;;10438595;28;20231;-78
2022/12/14 16:12:15;;;;;;;14.83;10.37;;;0.10;99.90;;;;;;10432383;28;20224;-76
2022/12/14 16:17:21;;;;;;;16.23;10.57;;;0.10;99.90;;;;;;10436202;28;20592;-76
2022/12/14 16:22:25;;;;;;;15.50;10.73;;;0.10;99.90;;;;;;10443984;28;20224;-76
2022/12/14 16:27:28;;;;;;;16.57;11.67;;;0.10;99.90;;;;;;10438304;28;20228;-78
2022/12/14 16:32:31;;;;;;;15.03;11.03;;;0.00;99.90;;;;;;10438968;28;20227;-77
2022/12/14 16:37:32;;;;;;;16.80;11.50;;;0.00;99.90;;;;;;10433792;28;20311;-77
2022/12/14 16:42:34;;;;;;;16.47;11.50;;;0.00;99.90;;;;;;10439002;28;20319;-76
2022/12/14 16:47:35;;;;;;;16.07;11.47;;;0.00;99.90;;;;;;10436277;28;20277;-77
2022/12/14 16:52:36;;;;;;;17.63;11.50;;;0.00;99.90;;;;;;10430703;28;20221;-77
2022/12/14 16:57:48;;;;;;;18.23;12.67;;;0.00;99.90;;;;;;10436064;28;20244;-78
2022/12/14 17:03:04;;;;;;;15.67;10.53;;;-0.10;99.90;;;;;;10430322;28;20228;-77
2022/12/14 17:08:06;;;;;;;17.37;11.27;;;-0.20;99.90;;;;;;10435405;28;20257;-77
2022/12/14 17:13:07;;;;;;;16.43;10.97;;;-0.40;99.90;;;;;;10433637;28;20220;-77
2022/12/14 17:18:09;;;;;;;19.40;12.93;;;-0.50;99.90;;;;;;10429480;28;20240;-77
2022/12/14 17:23:15;;;;;;;19.53;11.70;;;-0.70;99.90;;;;;;10427718;28;20227;-77
2022/12/14 17:28:27;;;;;;;19.30;11.60;;;-0.80;99.90;;;;;;10433336;28;20248;-77
2022/12/14 17:33:29;;;;;;;18.03;10.80;;;-0.90;99.90;;;;;;10434313;28;20646;-77
2022/12/14 17:38:33;;;;;;;17.40;11.27;;;-0.90;99.90;;;;;;10430973;28;20213;-77
2022/12/14 17:43:33;;;;;;;18.30;11.60;;;-1.00;99.90;;;;;;10427315;28;20655;-76
2022/12/14 17:48:37;;;;;;;17.33;11.23;;;-1.10;99.90;;;;;;10433838;28;20354;-76
2022/12/14 17:53:39;;;;;;;16.60;10.67;;;-1.10;99.90;;;;;;10420550;28;20217;-77
2022/12/14 17:58:44;;;;;;;18.23;10.80;;;-1.10;99.90;;;;;;10437148;28;20303;-76
2022/12/14 18:03:45;;;;;;;15.67;10.07;;;-1.20;99.90;;;;;;10441345;28;20204;-75
2022/12/14 18:08:47;;;;;;;17.07;10.80;;;-1.20;99.90;;;;;;10427671;28;20231;-76
2022/12/14 18:13:48;;;;;;;17.23;11.63;;;-1.20;99.90;;;;;;10433900;28;20223;-76
2022/12/14 18:18:50;;;;;;;20.80;12.07;;;-1.30;99.90;;;;;;10434266;28;20244;-77
2022/12/14 18:23:51;;;;;;;17.50;11.97;;;-1.40;99.90;;;;;;10434022;28;20223;-76
2022/12/14 18:28:53;;;;;;;20.00;11.80;;;-1.40;99.90;;;;;;10434755;28;20317;-76
2022/12/14 18:33:54;;;;;;;19.83;11.07;;;-1.50;99.90;;;;;;10427069;28;20220;-77
2022/12/14 18:38:55;;;;;;;17.47;11.53;;;-1.60;99.90;;;;;;10432782;28;20695;-76
2022/12/14 18:43:56;;;;;;;20.23;12.93;;;-1.60;99.90;;;;;;10426809;28;20323;-75
2022/12/14 18:48:57;;;;;;;25.10;14.80;;;-1.70;99.90;;;;;;10432513;28;20718;-77
2022/12/14 18:53:59;;;;;;;22.03;13.83;;;-1.70;99.90;;;;;;10431623;28;20231;-76
2022/12/14 18:58:59;;;;;;;22.87;14.27;;;-1.70;99.90;;;;;;10426306;28;20751;-76
2022/12/14 19:04:00;;;;;;;23.80;14.57;;;-1.80;99.90;;;;;;10430875;28;20223;-77
2022/12/14 19:09:00;;;;;;;24.03;13.80;;;-1.80;99.90;;;;;;10426913;28;20673;-77
2022/12/14 19:14:04;;;;;;;25.17;15.07;;;-1.90;99.90;;;;;;10433949;28;20324;-76
2022/12/14 19:19:05;;;;;;;24.67;13.90;;;-1.90;99.90;;;;;;10432081;28;20222;-77
2022/12/14 19:24:07;;;;;;;25.97;15.40;;;-2.00;99.90;;;;;;10430209;28;20312;-77
2022/12/14 19:29:07;;;;;;;26.83;16.37;;;-2.00;99.90;;;;;;10423294;28;20232;-77
2022/12/14 19:34:09;;;;;;;25.93;15.70;;;-2.00;99.90;;;;;;10431507;28;20700;-76
2022/12/14 19:39:09;;;;;;;21.33;13.57;;;-2.00;99.90;;;;;;10438197;28;20300;-77
2022/12/14 19:44:10;;;;;;;24.80;14.23;;;-2.00;99.90;;;;;;10435231;28;20222;-77
2022/12/14 19:49:13;;;;;;;21.43;12.70;;;-2.10;99.90;;;;;;10445898;28;20621;-77
2022/12/14 19:54:14;;;;;;;19.10;12.00;;;-2.20;99.90;;;;;;10436127;28;20227;-76
2022/12/14 19:59:14;;;;;;;24.13;12.53;;;-2.20;99.90;;;;;;10456756;28;20216;-76
2022/12/14 20:04:15;;;;;;;20.97;13.10;;;-2.20;99.90;;;;;;10466583;28;20311;-76
2022/12/14 20:09:16;;;;;;;20.93;12.77;;;-2.30;99.90;;;;;;10436487;28;20227;-76
2022/12/14 20:14:17;;;;;;;24.67;14.13;;;-2.30;99.90;;;;;;10434398;28;20220;-77
2022/12/14 20:19:18;;;;;;;20.83;12.40;;;-2.30;99.90;;;;;;10435964;28;20249;-76
2022/12/14 20:24:18;;;;;;;20.53;13.27;;;-2.20;99.90;;;;;;10425077;28;20225;-78
2022/12/14 20:29:19;;;;;;;23.27;14.13;;;-2.20;99.90;;;;;;10442876;28;20258;-78
2022/12/14 20:34:20;;;;;;;23.03;14.70;;;-2.20;99.90;;;;;;10433430;28;20233;-77
2022/12/14 20:39:20;;;;;;;26.20;15.53;;;-2.20;99.90;;;;;;10435976;28;20215;-76
2022/12/14 20:44:22;;;;;;;26.47;15.70;;;-2.20;99.90;;;;;;10431114;28;20220;-77
2022/12/14 20:49:28;;;;;;;25.73;17.00;;;-2.10;99.90;;;;;;10430366;28;20274;-76
2022/12/14 20:54:30;;;;;;;26.83;16.43;;;-2.20;99.90;;;;;;10434751;28;20262;-73
2022/12/14 20:59:32;;;;;;;28.27;17.57;;;-2.20;99.90;;;;;;10429919;28;20224;-76
2022/12/14 21:04:32;;;;;;;23.63;16.17;;;-2.20;99.90;;;;;;10436551;28;20223;-77
2022/12/14 21:09:33;;;;;;;28.10;17.57;;;-2.10;99.90;;;;;;10437792;28;20228;-77
2022/12/14 21:14:41;;;;;;;26.93;16.30;;;-2.10;99.90;;;;;;10436313;28;20299;-77
2022/12/14 21:19:41;;;;;;;26.57;16.77;;;-2.20;99.90;;;;;;10430228;28;20236;-76
2022/12/14 21:24:42;;;;;;;37.77;19.83;;;-2.20;99.90;;;;;;10436567;28;20258;-77
2022/12/14 21:29:43;;;;;;;30.77;17.37;;;-2.10;99.90;;;;;;10437207;28;20231;-79
2022/12/14 21:34:44;;;;;;;34.03;19.20;;;-2.00;99.90;;;;;;10435182;28;20223;-77
2022/12/14 21:39:47;;;;;;;35.60;19.50;;;-1.90;99.90;;;;;;10443372;28;20304;-77
2022/12/14 21:44:49;;;;;;;33.87;19.20;;;-1.80;99.90;;;;;;10427590;28;20221;-76
2022/12/14 21:49:50;;;;;;;31.23;16.87;;;-1.70;99.90;;;;;;10435640;28;20216;-74
2022/12/14 21:54:51;;;;;;;27.43;16.83;;;-1.60;99.90;;;;;;10427741;28;20220;-75
2022/12/14 21:59:51;;;;;;;27.67;16.83;;;-1.50;99.90;;;;;;10447454;28;20220;-77
2022/12/14 22:04:54;;;;;;;26.00;16.20;;;-1.50;99.90;;;;;;10461719;28;20208;-78
2022/12/14 22:09:55;;;;;;;26.50;15.70;;;-1.50;99.90;;;;;;10425850;28;20222;-77
2022/12/14 22:14:56;;;;;;;23.97;14.77;;;-1.40;99.90;;;;;;10434722;28;20254;-77
2022/12/14 22:19:58;;;;;;;25.07;14.27;;;-1.40;99.90;;;;;;10426819;28;20305;-77
2022/12/14 22:24:58;;;;;;;23.90;14.33;;;-1.30;99.90;;;;;;10425230;28;20274;-77
2022/12/14 22:29:59;;;;;;;26.03;15.13;;;-1.30;99.90;;;;;;10432856;28;20264;-77
2022/12/14 22:34:59;;;;;;;27.27;16.03;;;-1.30;99.90;;;;;;10440262;28;20924;-77
2022/12/14 22:40:00;;;;;;;23.47;15.47;;;-1.20;99.90;;;;;;10428041;28;20582;-77
2022/12/14 22:45:01;;;;;;;25.03;16.47;;;-1.30;99.90;;;;;;10432228;28;20221;-76
2022/12/14 22:50:02;;;;;;;31.27;17.90;;;-1.20;99.90;;;;;;10434281;28;20220;-75
2022/12/14 22:55:05;;;;;;;28.53;16.20;;;-1.20;99.90;;;;;;10426444;28;20568;-73
2022/12/14 23:00:10;;;;;;;24.60;15.53;;;-1.10;99.90;;;;;;10432333;28;20231;-78
2022/12/14 23:05:15;;;;;;;24.27;14.80;;;-1.10;99.90;;;;;;10434601;28;20191;-76
